sensor_id;sensor_type;location;lat;lon;timestamp;temperature;humidity
39665;DHT22;26679;50.872;4.332;2023-07-16T00:00:26;19.10;99.90
39665;DHT22;26679;50.872;4.332;2023-07-16T00:02:52;19.10;99.90
39665;DHT22;26679;50.872;4.332;2023-07-16T00:05:17;19.20;99.90
39665;DHT22;26679;50.872;4.332;2023-07-16T00:07:43;19.20;99.90
39665;DHT22;26679;50.872;4.332;2023-07-16T00:10:08;19.20;99.90
39665;DHT22;26679;50.872;4.332;2023-07-16T00:12:34;19.20;99.90
39665;DHT22;26679;50.872;4.332;2023-07-16T00:15:00;19.10;99.90
39665;DHT22;26679;50.872;4.332;2023-07-16T00:17:25;19.00;99.90
39665;DHT22;26679;50.872;4.332;2023-07-16T00:19:50;19.00;99.90
39665;DHT22;26679;50.872;4.332;2023-07-16T00:22:16;18.90;99.90
39665;DHT22;26679;50.872;4.332;2023-07-16T00:24:41;18.80;99.90
39665;DHT22;26679;50.872;4.332;2023-07-16T00:27:07;18.80;99.90
39665;DHT22;26679;50.872;4.332;2023-07-16T00:29:32;18.80;99.90
39665;DHT22;26679;50.872;4.332;2023-07-16T00:31:58;18.70;99.90
39665;DHT22;26679;50.872;4.332;2023-07-16T00:34:23;18.70;99.90
39665;DHT22;26679;50.872;4.332;2023-07-16T00:36:49;18.70;99.90
39665;DHT22;26679;50.872;4.332;2023-07-16T00:39:14;18.70;99.90
39665;DHT22;26679;50.872;4.332;2023-07-16T00:41:40;18.50;99.90
39665;DHT22;26679;50.872;4.332;2023-07-16T00:44:05;18.50;99.90
39665;DHT22;26679;50.872;4.332;2023-07-16T00:46:31;18.60;99.90
39665;DHT22;26679;50.872;4.332;2023-07-16T00:48:56;18.60;99.90
39665;DHT22;26679;50.872;4.332;2023-07-16T00:51:22;18.60;99.90
39665;DHT22;26679;50.872;4.332;2023-07-16T00:53:49;18.50;99.90
39665;DHT22;26679;50.872;4.332;2023-07-16T00:56:15;18.50;99.90
39665;DHT22;26679;50.872;4.332;2023-07-16T00:58:41;18.50;99.90
39665;DHT22;26679;50.872;4.332;2023-07-16T01:01:07;18.60;99.90
39665;DHT22;26679;50.872;4.332;2023-07-16T01:03:32;18.50;99.90
39665;DHT22;26679;50.872;4.332;2023-07-16T01:06:11;18.40;99.90
39665;DHT22;26679;50.872;4.332;2023-07-16T01:08:41;18.30;99.90
39665;DHT22;26679;50.872;4.332;2023-07-16T01:11:06;18.30;99.90
39665;DHT22;26679;50.872;4.332;2023-07-16T01:13:32;18.30;99.90
39665;DHT22;26679;50.872;4.332;2023-07-16T01:15:58;18.30;99.90
39665;DHT22;26679;50.872;4.332;2023-07-16T01:18:23;18.30;99.90
39665;DHT22;26679;50.872;4.332;2023-07-16T01:20:49;18.30;99.90
39665;DHT22;26679;50.872;4.332;2023-07-16T01:23:24;18.30;99.90
39665;DHT22;26679;50.872;4.332;2023-07-16T01:28:27;18.30;99.90
39665;DHT22;26679;50.872;4.332;2023-07-16T01:30:56;18.30;99.90
39665;DHT22;26679;50.872;4.332;2023-07-16T01:33:23;18.20;99.90
39665;DHT22;26679;50.872;4.332;2023-07-16T01:35:49;18.10;99.90
39665;DHT22;26679;50.872;4.332;2023-07-16T01:38:16;18.00;99.90
39665;DHT22;26679;50.872;4.332;2023-07-16T01:40:44;18.10;99.90
39665;DHT22;26679;50.872;4.332;2023-07-16T01:43:09;18.10;99.90
39665;DHT22;26679;50.872;4.332;2023-07-16T01:45:35;18.10;99.90
39665;DHT22;26679;50.872;4.332;2023-07-16T01:48:14;18.20;99.90
39665;DHT22;26679;50.872;4.332;2023-07-16T01:50:41;18.10;99.90
39665;DHT22;26679;50.872;4.332;2023-07-16T01:53:07;18.10;99.90
39665;DHT22;26679;50.872;4.332;2023-07-16T01:55:33;18.10;99.90
39665;DHT22;26679;50.872;4.332;2023-07-16T01:57:58;18.10;99.90
39665;DHT22;26679;50.872;4.332;2023-07-16T02:00:24;18.10;99.90
39665;DHT22;26679;50.872;4.332;2023-07-16T02:02:49;18.10;99.90
39665;DHT22;26679;50.872;4.332;2023-07-16T02:05:15;18.00;99.90
39665;DHT22;26679;50.872;4.332;2023-07-16T02:07:40;17.90;99.90
39665;DHT22;26679;50.872;4.332;2023-07-16T02:10:06;17.90;99.90
39665;DHT22;26679;50.872;4.332;2023-07-16T02:12:31;17.90;99.90
39665;DHT22;26679;50.872;4.332;2023-07-16T02:14:57;17.80;99.90
39665;DHT22;26679;50.872;4.332;2023-07-16T02:17:22;17.90;99.90
39665;DHT22;26679;50.872;4.332;2023-07-16T02:19:48;17.80;99.90
39665;DHT22;26679;50.872;4.332;2023-07-16T02:22:13;17.80;99.90
39665;DHT22;26679;50.872;4.332;2023-07-16T02:24:39;17.80;99.90
39665;DHT22;26679;50.872;4.332;2023-07-16T02:27:04;17.80;99.90
39665;DHT22;26679;50.872;4.332;2023-07-16T02:29:31;17.80;99.90
39665;DHT22;26679;50.872;4.332;2023-07-16T02:31:57;17.80;99.90
39665;DHT22;26679;50.872;4.332;2023-07-16T02:34:22;17.70;99.90
39665;DHT22;26679;50.872;4.332;2023-07-16T02:36:48;17.70;99.90
39665;DHT22;26679;50.872;4.332;2023-07-16T02:39:13;17.70;99.90
39665;DHT22;26679;50.872;4.332;2023-07-16T02:41:39;17.70;99.90
39665;DHT22;26679;50.872;4.332;2023-07-16T02:44:05;17.70;99.90
39665;DHT22;26679;50.872;4.332;2023-07-16T02:46:30;17.70;99.90
39665;DHT22;26679;50.872;4.332;2023-07-16T02:48:56;17.70;99.90
39665;DHT22;26679;50.872;4.332;2023-07-16T02:51:21;17.80;99.90
39665;DHT22;26679;50.872;4.332;2023-07-16T02:53:47;17.70;99.90
39665;DHT22;26679;50.872;4.332;2023-07-16T02:56:12;17.70;99.90
39665;DHT22;26679;50.872;4.332;2023-07-16T02:58:38;17.70;99.90
39665;DHT22;26679;50.872;4.332;2023-07-16T03:01:03;17.70;99.90
39665;DHT22;26679;50.872;4.332;2023-07-16T03:03:29;17.60;99.90
39665;DHT22;26679;50.872;4.332;2023-07-16T03:05:54;17.40;99.90
39665;DHT22;26679;50.872;4.332;2023-07-16T03:08:20;17.60;99.90
39665;DHT22;26679;50.872;4.332;2023-07-16T03:10:45;17.50;99.90
39665;DHT22;26679;50.872;4.332;2023-07-16T03:13:11;17.50;99.90
39665;DHT22;26679;50.872;4.332;2023-07-16T03:15:36;17.50;99.90
39665;DHT22;26679;50.872;4.332;2023-07-16T03:18:03;17.40;99.90
39665;DHT22;26679;50.872;4.332;2023-07-16T03:20:28;17.40;99.90
39665;DHT22;26679;50.872;4.332;2023-07-16T03:22:54;17.40;99.90
39665;DHT22;26679;50.872;4.332;2023-07-16T03:25:19;17.40;99.90
39665;DHT22;26679;50.872;4.332;2023-07-16T03:27:45;17.40;99.90
39665;DHT22;26679;50.872;4.332;2023-07-16T03:30:10;17.40;99.90
39665;DHT22;26679;50.872;4.332;2023-07-16T03:32:36;17.40;99.90
39665;DHT22;26679;50.872;4.332;2023-07-16T03:35:01;17.30;99.90
39665;DHT22;26679;50.872;4.332;2023-07-16T03:37:27;17.30;99.90
39665;DHT22;26679;50.872;4.332;2023-07-16T03:39:52;17.30;99.90
39665;DHT22;26679;50.872;4.332;2023-07-16T03:42:18;17.20;99.90
39665;DHT22;26679;50.872;4.332;2023-07-16T03:44:43;17.10;99.90
39665;DHT22;26679;50.872;4.332;2023-07-16T03:47:09;17.20;99.90
39665;DHT22;26679;50.872;4.332;2023-07-16T03:49:34;17.10;99.90
39665;DHT22;26679;50.872;4.332;2023-07-16T03:52:00;17.10;99.90
39665;DHT22;26679;50.872;4.332;2023-07-16T03:54:25;17.10;99.90
39665;DHT22;26679;50.872;4.332;2023-07-16T03:56:51;17.10;99.90
39665;DHT22;26679;50.872;4.332;2023-07-16T03:59:16;17.20;99.90
39665;DHT22;26679;50.872;4.332;2023-07-16T04:01:42;17.10;99.90
39665;DHT22;26679;50.872;4.332;2023-07-16T04:04:07;17.10;99.90
39665;DHT22;26679;50.872;4.332;2023-07-16T04:06:33;17.00;99.90
39665;DHT22;26679;50.872;4.332;2023-07-16T04:08:58;17.00;99.90
39665;DHT22;26679;50.872;4.332;2023-07-16T04:11:24;17.00;99.90
39665;DHT22;26679;50.872;4.332;2023-07-16T04:13:49;16.90;99.90
39665;DHT22;26679;50.872;4.332;2023-07-16T04:16:15;16.90;99.90
39665;DHT22;26679;50.872;4.332;2023-07-16T04:18:40;16.90;99.90
39665;DHT22;26679;50.872;4.332;2023-07-16T04:21:06;16.90;99.90
39665;DHT22;26679;50.872;4.332;2023-07-16T04:23:31;16.90;99.90
39665;DHT22;26679;50.872;4.332;2023-07-16T04:25:57;16.90;99.90
39665;DHT22;26679;50.872;4.332;2023-07-16T04:28:22;17.10;99.90
39665;DHT22;26679;50.872;4.332;2023-07-16T04:30:48;17.00;99.90
39665;DHT22;26679;50.872;4.332;2023-07-16T04:33:13;16.90;99.90
39665;DHT22;26679;50.872;4.332;2023-07-16T04:35:39;16.90;99.90
39665;DHT22;26679;50.872;4.332;2023-07-16T04:38:04;16.90;99.90
39665;DHT22;26679;50.872;4.332;2023-07-16T04:40:30;16.90;99.90
39665;DHT22;26679;50.872;4.332;2023-07-16T04:42:56;16.90;99.90
39665;DHT22;26679;50.872;4.332;2023-07-16T04:45:21;16.90;99.90
39665;DHT22;26679;50.872;4.332;2023-07-16T04:47:47;16.80;99.90
39665;DHT22;26679;50.872;4.332;2023-07-16T04:50:12;16.80;99.90
39665;DHT22;26679;50.872;4.332;2023-07-16T04:52:38;16.80;99.90
39665;DHT22;26679;50.872;4.332;2023-07-16T04:55:03;16.80;99.90
39665;DHT22;26679;50.872;4.332;2023-07-16T04:57:29;16.80;99.90
39665;DHT22;26679;50.872;4.332;2023-07-16T04:59:54;16.80;99.90
39665;DHT22;26679;50.872;4.332;2023-07-16T05:02:20;16.80;99.90
39665;DHT22;26679;50.872;4.332;2023-07-16T05:04:46;16.80;99.90
39665;DHT22;26679;50.872;4.332;2023-07-16T05:07:13;16.90;99.90
39665;DHT22;26679;50.872;4.332;2023-07-16T05:09:39;16.90;99.90
39665;DHT22;26679;50.872;4.332;2023-07-16T05:12:04;16.90;99.90
39665;DHT22;26679;50.872;4.332;2023-07-16T05:14:30;16.90;99.90
39665;DHT22;26679;50.872;4.332;2023-07-16T05:16:55;16.90;99.90
39665;DHT22;26679;50.872;4.332;2023-07-16T05:19:21;16.90;99.90
39665;DHT22;26679;50.872;4.332;2023-07-16T05:21:47;16.90;99.90
39665;DHT22;26679;50.872;4.332;2023-07-16T05:24:12;17.00;99.90
39665;DHT22;26679;50.872;4.332;2023-07-16T05:26:38;17.00;99.90
39665;DHT22;26679;50.872;4.332;2023-07-16T05:29:03;16.90;99.90
39665;DHT22;26679;50.872;4.332;2023-07-16T05:31:29;16.80;99.90
39665;DHT22;26679;50.872;4.332;2023-07-16T05:33:54;16.90;99.90
39665;DHT22;26679;50.872;4.332;2023-07-16T05:36:20;17.00;99.90
39665;DHT22;26679;50.872;4.332;2023-07-16T05:38:45;17.00;99.90
39665;DHT22;26679;50.872;4.332;2023-07-16T05:41:11;17.00;99.90
39665;DHT22;26679;50.872;4.332;2023-07-16T05:43:36;17.00;99.90
39665;DHT22;26679;50.872;4.332;2023-07-16T05:46:02;17.00;99.90
39665;DHT22;26679;50.872;4.332;2023-07-16T05:48:30;17.00;99.90
39665;DHT22;26679;50.872;4.332;2023-07-16T05:50:56;17.10;99.90
39665;DHT22;26679;50.872;4.332;2023-07-16T05:53:21;17.00;99.90
39665;DHT22;26679;50.872;4.332;2023-07-16T05:55:47;17.00;99.90
39665;DHT22;26679;50.872;4.332;2023-07-16T05:58:15;17.00;99.90
39665;DHT22;26679;50.872;4.332;2023-07-16T06:00:40;17.20;99.90
39665;DHT22;26679;50.872;4.332;2023-07-16T06:03:06;17.10;99.90
39665;DHT22;26679;50.872;4.332;2023-07-16T06:05:31;17.20;99.90
39665;DHT22;26679;50.872;4.332;2023-07-16T06:07:59;17.20;99.90
39665;DHT22;26679;50.872;4.332;2023-07-16T06:10:24;17.20;99.90
39665;DHT22;26679;50.872;4.332;2023-07-16T06:12:50;17.40;99.90
39665;DHT22;26679;50.872;4.332;2023-07-16T06:15:16;17.40;99.90
39665;DHT22;26679;50.872;4.332;2023-07-16T06:17:41;17.50;99.90
39665;DHT22;26679;50.872;4.332;2023-07-16T06:20:07;17.50;99.90
39665;DHT22;26679;50.872;4.332;2023-07-16T06:22:33;17.40;99.90
39665;DHT22;26679;50.872;4.332;2023-07-16T06:24:58;17.40;99.90
39665;DHT22;26679;50.872;4.332;2023-07-16T06:27:25;17.60;99.90
39665;DHT22;26679;50.872;4.332;2023-07-16T06:29:50;17.50;99.90
39665;DHT22;26679;50.872;4.332;2023-07-16T06:32:16;17.50;99.90
39665;DHT22;26679;50.872;4.332;2023-07-16T06:34:41;17.70;99.90
39665;DHT22;26679;50.872;4.332;2023-07-16T06:37:07;17.80;99.90
39665;DHT22;26679;50.872;4.332;2023-07-16T06:39:32;17.90;99.90
39665;DHT22;26679;50.872;4.332;2023-07-16T06:41:58;18.00;99.90
39665;DHT22;26679;50.872;4.332;2023-07-16T06:44:23;18.20;99.90
39665;DHT22;26679;50.872;4.332;2023-07-16T06:46:49;18.40;99.90
39665;DHT22;26679;50.872;4.332;2023-07-16T06:49:14;18.50;99.90
39665;DHT22;26679;50.872;4.332;2023-07-16T06:51:40;18.40;99.90
39665;DHT22;26679;50.872;4.332;2023-07-16T06:54:06;18.30;99.90
39665;DHT22;26679;50.872;4.332;2023-07-16T06:56:31;18.40;99.90
39665;DHT22;26679;50.872;4.332;2023-07-16T06:58:59;18.40;99.90
39665;DHT22;26679;50.872;4.332;2023-07-16T07:01:25;18.50;99.90
39665;DHT22;26679;50.872;4.332;2023-07-16T07:03:53;18.50;99.90
39665;DHT22;26679;50.872;4.332;2023-07-16T07:06:18;18.50;99.90
39665;DHT22;26679;50.872;4.332;2023-07-16T07:08:44;18.50;99.90
39665;DHT22;26679;50.872;4.332;2023-07-16T07:11:09;18.60;99.90
39665;DHT22;26679;50.872;4.332;2023-07-16T07:13:35;18.70;99.90
39665;DHT22;26679;50.872;4.332;2023-07-16T07:16:00;18.80;99.90
39665;DHT22;26679;50.872;4.332;2023-07-16T07:18:26;18.90;99.90
39665;DHT22;26679;50.872;4.332;2023-07-16T07:20:51;18.80;99.90
39665;DHT22;26679;50.872;4.332;2023-07-16T07:23:17;18.70;99.90
39665;DHT22;26679;50.872;4.332;2023-07-16T07:25:42;18.70;99.90
39665;DHT22;26679;50.872;4.332;2023-07-16T07:28:08;18.80;99.90
39665;DHT22;26679;50.872;4.332;2023-07-16T07:30:33;18.90;99.90
39665;DHT22;26679;50.872;4.332;2023-07-16T07:32:59;19.10;99.90
39665;DHT22;26679;50.872;4.332;2023-07-16T07:35:24;19.30;99.90
39665;DHT22;26679;50.872;4.332;2023-07-16T07:37:50;19.30;99.90
39665;DHT22;26679;50.872;4.332;2023-07-16T07:40:15;19.30;99.90
39665;DHT22;26679;50.872;4.332;2023-07-16T07:42:41;19.30;99.90
39665;DHT22;26679;50.872;4.332;2023-07-16T07:45:06;19.40;99.90
39665;DHT22;26679;50.872;4.332;2023-07-16T07:47:32;19.40;99.90
39665;DHT22;26679;50.872;4.332;2023-07-16T07:49:58;19.60;99.90
39665;DHT22;26679;50.872;4.332;2023-07-16T07:52:23;19.60;99.90
39665;DHT22;26679;50.872;4.332;2023-07-16T07:54:49;19.60;99.90
39665;DHT22;26679;50.872;4.332;2023-07-16T07:57:14;19.70;99.90
39665;DHT22;26679;50.872;4.332;2023-07-16T07:59:40;19.90;99.90
39665;DHT22;26679;50.872;4.332;2023-07-16T08:02:05;20.00;99.90
39665;DHT22;26679;50.872;4.332;2023-07-16T08:04:31;20.30;99.90
39665;DHT22;26679;50.872;4.332;2023-07-16T08:06:57;20.20;99.90
39665;DHT22;26679;50.872;4.332;2023-07-16T08:09:23;20.30;99.90
39665;DHT22;26679;50.872;4.332;2023-07-16T08:11:48;20.30;99.90
39665;DHT22;26679;50.872;4.332;2023-07-16T08:14:14;20.20;99.90
39665;DHT22;26679;50.872;4.332;2023-07-16T08:16:39;20.20;99.90
39665;DHT22;26679;50.872;4.332;2023-07-16T08:19:05;20.00;99.90
39665;DHT22;26679;50.872;4.332;2023-07-16T08:21:32;20.00;99.90
39665;DHT22;26679;50.872;4.332;2023-07-16T08:23:57;20.00;99.90
39665;DHT22;26679;50.872;4.332;2023-07-16T08:26:23;20.00;99.90
39665;DHT22;26679;50.872;4.332;2023-07-16T08:28:48;20.10;99.90
39665;DHT22;26679;50.872;4.332;2023-07-16T08:31:13;20.20;99.90
39665;DHT22;26679;50.872;4.332;2023-07-16T08:33:39;20.30;99.90
39665;DHT22;26679;50.872;4.332;2023-07-16T08:36:05;20.30;99.90
39665;DHT22;26679;50.872;4.332;2023-07-16T08:38:30;20.30;99.90
39665;DHT22;26679;50.872;4.332;2023-07-16T08:40:56;20.20;99.90
39665;DHT22;26679;50.872;4.332;2023-07-16T08:43:21;20.30;99.90
39665;DHT22;26679;50.872;4.332;2023-07-16T08:45:47;20.30;99.90
39665;DHT22;26679;50.872;4.332;2023-07-16T08:48:13;20.30;99.90
39665;DHT22;26679;50.872;4.332;2023-07-16T08:50:39;20.30;99.90
39665;DHT22;26679;50.872;4.332;2023-07-16T08:53:07;20.40;99.90
39665;DHT22;26679;50.872;4.332;2023-07-16T08:55:33;20.50;99.80
39665;DHT22;26679;50.872;4.332;2023-07-16T08:57:59;20.50;99.90
39665;DHT22;26679;50.872;4.332;2023-07-16T09:00:25;20.70;99.70
39665;DHT22;26679;50.872;4.332;2023-07-16T09:02:51;20.80;99.40
39665;DHT22;26679;50.872;4.332;2023-07-16T09:05:18;20.70;99.30
39665;DHT22;26679;50.872;4.332;2023-07-16T09:07:45;20.70;99.70
39665;DHT22;26679;50.872;4.332;2023-07-16T09:10:11;21.00;99.20
39665;DHT22;26679;50.872;4.332;2023-07-16T09:12:41;21.20;98.60
39665;DHT22;26679;50.872;4.332;2023-07-16T09:15:07;21.20;98.50
39665;DHT22;26679;50.872;4.332;2023-07-16T09:17:32;21.30;98.10
39665;DHT22;26679;50.872;4.332;2023-07-16T09:20:01;21.20;98.30
39665;DHT22;26679;50.872;4.332;2023-07-16T09:22:27;21.30;98.40
39665;DHT22;26679;50.872;4.332;2023-07-16T09:24:53;21.20;98.30
39665;DHT22;26679;50.872;4.332;2023-07-16T09:27:18;21.10;98.50
39665;DHT22;26679;50.872;4.332;2023-07-16T09:29:44;21.10;98.20
39665;DHT22;26679;50.872;4.332;2023-07-16T09:32:11;21.20;98.00
39665;DHT22;26679;50.872;4.332;2023-07-16T09:34:37;21.20;98.10
39665;DHT22;26679;50.872;4.332;2023-07-16T09:37:03;21.10;98.30
39665;DHT22;26679;50.872;4.332;2023-07-16T09:39:29;21.00;98.30
39665;DHT22;26679;50.872;4.332;2023-07-16T09:41:56;21.10;98.10
39665;DHT22;26679;50.872;4.332;2023-07-16T09:44:22;21.10;97.90
39665;DHT22;26679;50.872;4.332;2023-07-16T09:46:48;21.30;97.90
39665;DHT22;26679;50.872;4.332;2023-07-16T09:49:16;21.70;97.20
39665;DHT22;26679;50.872;4.332;2023-07-16T09:51:42;21.60;97.50
39665;DHT22;26679;50.872;4.332;2023-07-16T09:54:08;21.30;97.90
39665;DHT22;26679;50.872;4.332;2023-07-16T09:58:59;21.50;97.60
39665;DHT22;26679;50.872;4.332;2023-07-16T10:01:25;21.40;97.60
39665;DHT22;26679;50.872;4.332;2023-07-16T10:03:50;21.40;97.60
39665;DHT22;26679;50.872;4.332;2023-07-16T10:06:16;21.50;97.40
39665;DHT22;26679;50.872;4.332;2023-07-16T10:08:48;21.30;97.50
39665;DHT22;26679;50.872;4.332;2023-07-16T10:11:16;21.20;97.70
39665;DHT22;26679;50.872;4.332;2023-07-16T10:13:42;21.10;97.70
39665;DHT22;26679;50.872;4.332;2023-07-16T10:16:08;21.00;98.00
39665;DHT22;26679;50.872;4.332;2023-07-16T10:18:49;20.70;98.10
39665;DHT22;26679;50.872;4.332;2023-07-16T10:21:22;20.70;98.10
39665;DHT22;26679;50.872;4.332;2023-07-16T10:23:47;20.70;98.30
39665;DHT22;26679;50.872;4.332;2023-07-16T10:26:25;20.80;98.30
39665;DHT22;26679;50.872;4.332;2023-07-16T10:28:51;21.00;98.30
39665;DHT22;26679;50.872;4.332;2023-07-16T10:31:17;21.00;98.50
39665;DHT22;26679;50.872;4.332;2023-07-16T10:33:43;20.90;98.40
39665;DHT22;26679;50.872;4.332;2023-07-16T10:36:08;20.80;98.50
39665;DHT22;26679;50.872;4.332;2023-07-16T10:38:41;20.70;98.60
39665;DHT22;26679;50.872;4.332;2023-07-16T10:41:07;20.60;98.80
39665;DHT22;26679;50.872;4.332;2023-07-16T10:43:33;20.60;99.10
39665;DHT22;26679;50.872;4.332;2023-07-16T10:45:58;20.50;99.30
39665;DHT22;26679;50.872;4.332;2023-07-16T10:48:24;20.60;99.20
39665;DHT22;26679;50.872;4.332;2023-07-16T10:50:52;20.90;98.80
39665;DHT22;26679;50.872;4.332;2023-07-16T10:53:19;21.40;98.20
39665;DHT22;26679;50.872;4.332;2023-07-16T10:55:44;21.40;98.10
39665;DHT22;26679;50.872;4.332;2023-07-16T10:58:10;21.40;98.10
39665;DHT22;26679;50.872;4.332;2023-07-16T11:00:39;21.40;97.90
39665;DHT22;26679;50.872;4.332;2023-07-16T11:03:04;21.30;97.70
39665;DHT22;26679;50.872;4.332;2023-07-16T11:05:30;21.30;97.70
39665;DHT22;26679;50.872;4.332;2023-07-16T11:07:55;21.30;97.70
39665;DHT22;26679;50.872;4.332;2023-07-16T11:10:22;21.30;98.00
39665;DHT22;26679;50.872;4.332;2023-07-16T11:12:51;21.00;98.70
39665;DHT22;26679;50.872;4.332;2023-07-16T11:15:18;20.80;99.90
39665;DHT22;26679;50.872;4.332;2023-07-16T11:17:47;20.30;99.90
39665;DHT22;26679;50.872;4.332;2023-07-16T11:20:13;19.90;99.90
39665;DHT22;26679;50.872;4.332;2023-07-16T11:22:39;19.60;99.90
39665;DHT22;26679;50.872;4.332;2023-07-16T11:25:10;19.60;99.90
39665;DHT22;26679;50.872;4.332;2023-07-16T11:27:36;19.90;99.90
39665;DHT22;26679;50.872;4.332;2023-07-16T11:30:01;20.40;99.90
39665;DHT22;26679;50.872;4.332;2023-07-16T11:34:55;21.50;99.90
39665;DHT22;26679;50.872;4.332;2023-07-16T11:37:22;22.00;99.40
39665;DHT22;26679;50.872;4.332;2023-07-16T11:39:48;21.70;99.30
39665;DHT22;26679;50.872;4.332;2023-07-16T11:42:14;22.10;99.60
39665;DHT22;26679;50.872;4.332;2023-07-16T11:44:40;22.60;98.30
39665;DHT22;26679;50.872;4.332;2023-07-16T11:47:05;22.80;98.00
39665;DHT22;26679;50.872;4.332;2023-07-16T11:49:31;23.00;97.40
39665;DHT22;26679;50.872;4.332;2023-07-16T11:51:57;23.30;97.20
39665;DHT22;26679;50.872;4.332;2023-07-16T11:54:22;24.50;95.90
39665;DHT22;26679;50.872;4.332;2023-07-16T11:56:48;25.60;94.20
39665;DHT22;26679;50.872;4.332;2023-07-16T11:59:13;25.80;93.90
39665;DHT22;26679;50.872;4.332;2023-07-16T12:01:39;25.40;94.10
39665;DHT22;26679;50.872;4.332;2023-07-16T12:04:04;25.30;94.10
39665;DHT22;26679;50.872;4.332;2023-07-16T12:06:30;25.80;93.10
39665;DHT22;26679;50.872;4.332;2023-07-16T12:08:55;25.80;92.90
39665;DHT22;26679;50.872;4.332;2023-07-16T12:11:21;25.80;92.90
39665;DHT22;26679;50.872;4.332;2023-07-16T12:13:47;25.40;92.60
39665;DHT22;26679;50.872;4.332;2023-07-16T12:16:13;25.20;92.50
39665;DHT22;26679;50.872;4.332;2023-07-16T12:18:38;25.20;92.70
39665;DHT22;26679;50.872;4.332;2023-07-16T12:21:04;25.60;92.00
39665;DHT22;26679;50.872;4.332;2023-07-16T12:23:31;25.40;92.00
39665;DHT22;26679;50.872;4.332;2023-07-16T12:25:56;24.60;92.50
39665;DHT22;26679;50.872;4.332;2023-07-16T12:28:22;24.20;92.80
39665;DHT22;26679;50.872;4.332;2023-07-16T12:30:47;23.80;93.30
39665;DHT22;26679;50.872;4.332;2023-07-16T12:33:13;23.40;93.80
39665;DHT22;26679;50.872;4.332;2023-07-16T12:35:38;23.10;94.00
39665;DHT22;26679;50.872;4.332;2023-07-16T12:38:04;22.90;94.50
39665;DHT22;26679;50.872;4.332;2023-07-16T12:40:29;23.00;94.70
39665;DHT22;26679;50.872;4.332;2023-07-16T12:42:56;23.80;94.10
39665;DHT22;26679;50.872;4.332;2023-07-16T12:45:21;25.10;93.20
39665;DHT22;26679;50.872;4.332;2023-07-16T12:47:47;26.40;91.50
39665;DHT22;26679;50.872;4.332;2023-07-16T12:50:12;26.70;90.60
39665;DHT22;26679;50.872;4.332;2023-07-16T12:52:38;26.00;91.30
39665;DHT22;26679;50.872;4.332;2023-07-16T12:55:03;25.70;91.20
39665;DHT22;26679;50.872;4.332;2023-07-16T12:57:29;25.90;90.90
39665;DHT22;26679;50.872;4.332;2023-07-16T12:59:54;25.60;91.30
39665;DHT22;26679;50.872;4.332;2023-07-16T13:02:20;25.00;91.50
39665;DHT22;26679;50.872;4.332;2023-07-16T13:04:46;25.30;91.60
39665;DHT22;26679;50.872;4.332;2023-07-16T13:07:11;26.00;90.90
39665;DHT22;26679;50.872;4.332;2023-07-16T13:09:38;27.30;89.10
39665;DHT22;26679;50.872;4.332;2023-07-16T13:12:03;27.60;87.70
39665;DHT22;26679;50.872;4.332;2023-07-16T13:14:29;26.90;89.00
39665;DHT22;26679;50.872;4.332;2023-07-16T13:16:54;26.40;89.20
39665;DHT22;26679;50.872;4.332;2023-07-16T13:19:20;25.80;89.60
39665;DHT22;26679;50.872;4.332;2023-07-16T13:21:45;25.20;89.40
39665;DHT22;26679;50.872;4.332;2023-07-16T13:24:11;24.40;90.60
39665;DHT22;26679;50.872;4.332;2023-07-16T13:26:36;24.10;91.20
39665;DHT22;26679;50.872;4.332;2023-07-16T13:29:02;24.10;91.40
39665;DHT22;26679;50.872;4.332;2023-07-16T13:31:27;23.90;91.80
39665;DHT22;26679;50.872;4.332;2023-07-16T13:33:53;23.80;92.20
39665;DHT22;26679;50.872;4.332;2023-07-16T13:36:19;23.60;92.60
39665;DHT22;26679;50.872;4.332;2023-07-16T13:38:44;23.50;92.90
39665;DHT22;26679;50.872;4.332;2023-07-16T13:41:10;23.20;92.70
39665;DHT22;26679;50.872;4.332;2023-07-16T13:43:35;23.30;92.60
39665;DHT22;26679;50.872;4.332;2023-07-16T13:46:01;23.30;92.30
39665;DHT22;26679;50.872;4.332;2023-07-16T13:48:26;23.30;92.30
39665;DHT22;26679;50.872;4.332;2023-07-16T13:50:52;23.20;92.50
39665;DHT22;26679;50.872;4.332;2023-07-16T13:53:17;23.00;92.90
39665;DHT22;26679;50.872;4.332;2023-07-16T13:55:43;23.30;92.60
39665;DHT22;26679;50.872;4.332;2023-07-16T13:58:09;23.30;92.60
39665;DHT22;26679;50.872;4.332;2023-07-16T14:00:35;23.50;92.40
39665;DHT22;26679;50.872;4.332;2023-07-16T14:03:00;23.60;92.20
39665;DHT22;26679;50.872;4.332;2023-07-16T14:05:25;24.20;92.30
39665;DHT22;26679;50.872;4.332;2023-07-16T14:07:52;24.70;91.60
39665;DHT22;26679;50.872;4.332;2023-07-16T14:10:19;24.90;91.60
39665;DHT22;26679;50.872;4.332;2023-07-16T14:12:44;25.30;91.00
39665;DHT22;26679;50.872;4.332;2023-07-16T14:15:10;25.70;90.60
39665;DHT22;26679;50.872;4.332;2023-07-16T14:17:35;26.00;90.30
39665;DHT22;26679;50.872;4.332;2023-07-16T14:20:01;25.70;90.60
39665;DHT22;26679;50.872;4.332;2023-07-16T14:22:26;26.00;89.50
39665;DHT22;26679;50.872;4.332;2023-07-16T14:24:53;26.10;89.20
39665;DHT22;26679;50.872;4.332;2023-07-16T14:27:18;26.10;89.40
39665;DHT22;26679;50.872;4.332;2023-07-16T14:29:45;25.70;90.00
39665;DHT22;26679;50.872;4.332;2023-07-16T14:32:11;25.60;90.20
39665;DHT22;26679;50.872;4.332;2023-07-16T14:34:36;25.70;89.50
39665;DHT22;26679;50.872;4.332;2023-07-16T14:37:02;25.80;89.50
39665;DHT22;26679;50.872;4.332;2023-07-16T14:39:27;26.30;89.40
39665;DHT22;26679;50.872;4.332;2023-07-16T14:41:53;26.50;87.90
39665;DHT22;26679;50.872;4.332;2023-07-16T14:44:18;26.30;86.50
39665;DHT22;26679;50.872;4.332;2023-07-16T14:46:44;26.10;86.50
39665;DHT22;26679;50.872;4.332;2023-07-16T14:49:10;25.90;86.10
39665;DHT22;26679;50.872;4.332;2023-07-16T14:51:35;26.00;85.80
39665;DHT22;26679;50.872;4.332;2023-07-16T14:54:05;26.00;85.30
39665;DHT22;26679;50.872;4.332;2023-07-16T14:56:31;26.40;84.40
39665;DHT22;26679;50.872;4.332;2023-07-16T14:58:56;26.60;83.60
39665;DHT22;26679;50.872;4.332;2023-07-16T15:01:22;26.70;82.30
39665;DHT22;26679;50.872;4.332;2023-07-16T15:03:47;26.40;82.00
39665;DHT22;26679;50.872;4.332;2023-07-16T15:06:13;26.10;82.80
39665;DHT22;26679;50.872;4.332;2023-07-16T15:08:40;26.00;82.90
39665;DHT22;26679;50.872;4.332;2023-07-16T15:11:06;25.40;83.80
39665;DHT22;26679;50.872;4.332;2023-07-16T15:13:31;25.10;84.20
39665;DHT22;26679;50.872;4.332;2023-07-16T15:15:57;25.00;84.60
39665;DHT22;26679;50.872;4.332;2023-07-16T15:18:23;24.90;85.00
39665;DHT22;26679;50.872;4.332;2023-07-16T15:20:54;24.90;85.10
39665;DHT22;26679;50.872;4.332;2023-07-16T15:23:20;25.20;85.40
39665;DHT22;26679;50.872;4.332;2023-07-16T15:25:45;25.90;85.20
39665;DHT22;26679;50.872;4.332;2023-07-16T15:28:11;26.60;83.70